Latest Weather Observations for Bradshaw

IDD60801

Issued at 10:31 pm CST Wednesday 1 April 2015 (issued every 30 minutes, with the page automatically refreshed every 10 minutes)

About weather observations | Map of weather stations | Latest weather observations for NT | Other Formats
Station Details ID: 014954 Name: BRADSHAW Lat: -14.94 Lon: 130.81 Height: 75.0 m
Data from the previous 72 hours. | See also: Recent months at Bradshaw
Date/Time
CST
Temp
°C
App
Temp
°C
Dew
Point
Rel
Hum
%
Delta-T
°C
Wind Press
QNH
hPa
Press
MSL
hPa
Rain
since 9 am
mm
Dir
 
Spd
km/h
Gust
km/h
Spd
kts
Gust
kts
01/10:30pm 29.7 33.2 21.9 63 5.3 E 6 7 3 4 1010.7 - 0.0
01/10:00pm 29.6 32.8 22.3 65 5.0 NNE 9 11 5 6 1010.7 - 0.0
01/09:30pm 29.8 33.7 22.5 65 5.0 NE 6 7 3 4 1010.5 - 0.0
01/09:00pm 29.9 34.1 23.1 67 4.7 ENE 6 7 3 4 1010.3 1009.8 0.0
01/08:30pm 30.3 33.6 22.5 63 5.3 NE 9 9 5 5 1009.7 - 0.0
01/08:00pm 31.6 34.3 21.4 54 6.9 ENE 9 11 5 6 1009.3 - 0.0
01/07:30pm 32.1 35.3 21.6 53 7.1 ENE 7 9 4 5 1009.0 - 0.0
01/07:00pm 33.2 35.5 20.7 47 8.4 E 9 11 5 6 1008.8 - 0.0
01/06:30pm 34.8 36.8 20.0 42 9.9 E 9 13 5 7 1008.6 - 0.0
01/06:00pm 36.1 36.9 19.1 36 11.3 E 13 17 7 9 1008.3 1007.8 0.0
01/05:30pm 36.6 37.6 18.6 34 11.9 E 11 20 6 11 1008.2 - 0.0
01/05:00pm 37.9 38.0 18.3 31 12.9 E 15 19 8 10 1008.1 - 0.0
01/04:30pm 38.4 39.5 18.8 32 13.0 E 11 17 6 9 1008.2 - 0.0
01/04:00pm 38.6 39.6 19.4 32 12.9 SE 13 20 7 11 1008.3 - 0.0
01/03:30pm 37.0 37.6 18.5 33 12.2 ESE 13 24 7 13 1008.6 - 0.0
01/03:00pm 38.2 39.4 20.0 34 12.3 WSW 13 24 7 13 1008.8 1008.3 0.0
01/02:30pm 36.6 37.4 19.1 35 11.6 SSE 13 20 7 11 1009.3 - 0.0
01/02:00pm 38.1 39.6 19.0 32 12.7 ESE 9 19 5 10 1009.6 - 0.0
01/01:30pm 37.2 37.8 18.7 33 12.2 ENE 13 24 7 13 1010.2 - 0.0
01/01:00pm 37.9 39.4 19.8 35 12.2 S 11 17 6 9 1010.7 - 0.0
01/12:30pm 37.2 37.4 20.1 37 11.5 SE 19 22 10 12 1011.4 - 0.0
01/12:00pm 36.9 39.0 20.2 37 11.3 S 9 15 5 8 1011.9 1011.4 0.0
01/11:30am 36.2 39.0 20.4 39 10.7 NNE 6 13 3 7 1012.5 - 0.0
01/11:00am 35.0 37.2 20.5 42 9.8 NNE 9 17 5 9 1013.1 - 0.0
01/10:30am 34.5 36.7 19.7 41 9.8 NNE 7 13 4 7 1013.6 - 0.0
01/10:00am 34.2 37.6 21.6 47 8.6 NNW 6 9 3 5 1013.7 - 0.0
01/09:30am 32.7 35.7 21.2 50 7.8 N 7 11 4 6 1013.7 - 0.0
01/09:00am 31.2 35.2 21.4 56 6.6 ENE 2 7 1 4 1013.6 1013.1 0.0
01/08:30am 30.8 34.3 21.9 59 6.0 NNE 6 7 3 4 1013.3 - 0.0
01/08:00am 28.7 31.9 21.7 66 4.7 NNE 7 9 4 5 1012.8 - 0.0
01/07:30am 27.1 31.9 22.1 74 3.4 CALM 0 6 0 3 1012.5 - 0.0
01/07:00am 25.5 28.9 22.0 81 2.3 NNE 7 9 4 5 1012.2 - 0.0
01/06:30am 25.7 30.0 21.1 76 3.0 CALM 0 0 0 0 1012.0 - 0.0
01/06:00am 26.3 29.1 21.5 75 3.2 NNE 9 11 5 6 1011.8 1011.3 0.0
01/05:30am 26.4 30.5 22.3 78 2.8 NNE 4 7 2 4 1011.7 - 0.0
01/05:00am 26.3 30.4 22.2 78 2.8 N 4 9 2 5 1011.4 - 0.0
01/04:30am 26.3 31.4 23.4 84 2.0 N 2 6 1 3 1011.3 - 0.0
01/04:00am 26.4 31.0 22.5 79 2.6 WNW 2 6 1 3 1011.3 - 0.0
01/03:30am 25.9 30.8 22.4 81 2.4 CALM 0 0 0 0 1011.4 - 0.0
01/03:00am 25.8 31.1 23.1 85 1.8 CALM 0 0 0 0 1011.6 1011.1 0.0
01/02:30am 25.6 30.4 22.1 81 2.3 CALM 0 0 0 0 1011.5 - 0.0
01/02:00am 25.7 30.3 21.8 79 2.6 CALM 0 0 0 0 1011.7 - 0.0
01/01:30am 26.6 31.4 22.2 77 3.0 CALM 0 0 0 0 1011.9 - 0.0
01/01:00am 27.5 31.5 21.3 69 4.1 NE 2 7 1 4 1012.2 - 0.0
01/12:30am 28.7 30.5 21.2 64 5.0 NNE 13 17 7 9 1012.5 - 0.0
01/12:00am 28.2 31.1 21.7 68 4.4 NE 9 13 5 7 1012.7 1012.2 0.0
 
Date/Time
CST
Temp
°C
App
Temp
°C
Dew
Point
Rel
Hum
%
Delta-T
°C
Wind Press
QNH
hPa
Press
MSL
hPa
Rain
since 9 am
mm
Dir
 
Spd
km/h
Gust
km/h
Spd
kts
Gust
kts
31/11:30pm 27.4 31.0 22.3 73 3.4 NE 7 9 4 5 1012.8 - 0.0
31/11:00pm 27.7 30.6 21.7 70 4.0 NE 9 11 5 6 1012.8 - 0.0
31/10:30pm 28.0 31.0 22.0 70 4.0 NE 9 9 5 5 1012.8 - 0.0
31/10:00pm 28.0 31.7 22.5 72 3.7 ENE 7 9 4 5 1012.8 - 0.0
31/09:30pm 27.8 32.5 22.7 74 3.5 ENE 2 9 1 5 1012.8 - 0.0
31/09:00pm 28.4 32.3 22.6 71 3.9 NNE 6 7 3 4 1012.5 1011.9 0.0
31/08:30pm 30.3 33.2 21.1 58 6.2 E 7 9 4 5 1012.1 - 0.0
31/08:00pm 30.6 33.3 21.4 58 6.2 E 9 11 5 6 1011.8 - 0.0
31/07:30pm 31.1 34.2 21.0 55 6.8 E 6 7 3 4 1011.5 - 0.0
31/07:00pm 32.8 35.0 19.6 45 8.7 ENE 7 11 4 6 1011.2 - 0.0
31/06:30pm 34.6 35.6 18.6 38 10.5 ENE 11 17 6 9 1010.8 - 0.0
31/05:30pm 36.2 36.5 17.8 33 12.0 ENE 13 20 7 11 1010.4 - 0.0
31/05:00pm 36.8 36.2 18.8 34 11.9 ENE 20 30 11 16 1010.3 - 0.0
31/04:30pm 35.6 35.1 17.8 35 11.6 E 17 22 9 12 1010.2 - 0.0
31/04:00pm 37.2 37.2 18.2 32 12.5 E 15 24 8 13 1010.0 - 0.0
31/03:30pm 38.3 38.0 18.2 31 13.2 ENE 17 24 9 13 1010.1 - 0.0
31/03:00pm 37.6 37.1 18.6 33 12.6 SE 19 26 10 14 1010.4 1009.8 0.0
31/02:30pm 36.4 36.4 18.0 33 12.0 E 15 24 8 13 1010.9 - 0.0
31/02:00pm 37.4 37.5 18.4 32 12.5 E 15 26 8 14 1011.2 - 0.0
31/01:30pm 37.4 36.9 17.9 31 12.8 E 17 26 9 14 1011.7 - 0.0
31/01:00pm 37.2 36.5 18.2 32 12.5 NE 19 28 10 15 1012.2 - 0.0
31/12:30pm 36.7 35.4 17.3 31 12.6 ENE 20 30 11 16 1012.7 - 0.0
31/12:00pm 36.6 34.9 16.2 29 13.0 E 20 32 11 17 1013.4 1012.8 0.0
31/11:30am 36.3 35.5 17.9 33 12.0 E 19 30 10 16 1013.9 - 0.0
31/11:00am 35.7 35.6 18.7 36 11.2 ENE 17 32 9 17 1014.2 - 0.0
31/10:30am 33.9 35.8 21.3 47 8.5 NNE 13 20 7 11 1014.4 - 0.0
31/10:00am 32.8 34.8 21.6 51 7.6 NE 13 20 7 11 1014.7 - 0.0
31/09:30am 32.4 34.9 22.5 56 6.8 NE 13 20 7 11 1014.8 - 0.0
31/09:00am 30.5 31.9 21.8 59 5.9 NE 17 22 9 12 1014.7 1014.1 0.0
31/08:30am 29.4 31.6 21.9 64 5.1 NNE 13 20 7 11 1014.4 - 0.0
31/08:00am 27.7 30.2 21.7 70 4.0 NNE 11 15 6 8 1014.2 - 0.0
31/07:30am 24.8 29.6 22.9 89 1.3 SE 2 7 1 4 1014.1 - 0.0
31/07:00am 24.0 28.7 21.9 88 1.4 CALM 0 0 0 0 1013.8 - 0.0
31/06:30am 24.5 29.0 21.6 84 1.9 CALM 0 4 0 2 1013.6 - 0.0
31/06:00am 24.6 27.8 21.7 84 1.9 N 7 9 4 5 1013.3 1012.7 0.0
31/05:30am 25.7 29.1 22.0 80 2.5 NNE 7 11 4 6 1012.9 - 0.0
31/05:00am 25.7 29.5 21.6 78 2.7 N 4 9 2 5 1012.6 - 0.0
31/04:30am 26.6 29.5 21.8 75 3.2 E 9 11 5 6 1012.4 - 0.0
31/04:00am 26.2 29.4 22.3 79 2.6 NE 9 11 5 6 1012.3 - 0.0
31/03:30am 24.5 27.7 22.4 88 1.4 N 9 11 5 6 1012.3 - 0.0
31/03:00am 24.5 28.7 22.4 88 1.4 NE 4 6 2 3 1012.4 1011.8 0.0
31/02:30am 25.8 29.1 21.9 79 2.6 ENE 7 7 4 4 1012.5 - 0.0
31/02:00am 25.9 29.3 22.0 79 2.6 ENE 7 7 4 4 1012.7 - 0.0
31/01:30am 26.1 29.6 22.2 79 2.6 ENE 7 9 4 5 1013.0 - 0.0
31/01:00am 26.8 30.3 22.2 76 3.1 ENE 7 9 4 5 1013.3 - 0.0
31/12:30am 26.1 29.7 22.4 80 2.5 NE 7 9 4 5 1013.5 - 0.0
31/12:00am 27.0 30.3 22.6 77 3.0 E 9 9 5 5 1013.7 1013.1 0.0
 
Date/Time
CST
Temp
°C
App
Temp
°C
Dew
Point
Rel
Hum
%
Delta-T
°C
Wind Press
QNH
hPa
Press
MSL
hPa
Rain
since 9 am
mm
Dir
 
Spd
km/h
Gust
km/h
Spd
kts
Gust
kts
30/11:30pm 26.5 30.3 22.8 80 2.5 NE 7 7 4 4 1013.7 - 0.0
30/11:00pm 27.2 31.0 22.8 77 3.0 NE 7 7 4 4 1013.9 - 0.0
30/10:30pm 28.0 31.7 22.5 72 3.7 E 7 9 4 5 1013.9 - 0.0
30/10:00pm 27.6 30.8 22.3 73 3.6 NE 9 11 5 6 1013.9 - 0.0
30/09:30pm 28.3 31.9 22.3 70 4.1 ENE 7 7 4 4 1013.7 - 0.0
30/09:00pm 28.7 32.6 22.9 71 4.0 E 7 7 4 4 1013.6 1013.0 0.0
30/08:30pm 29.9 33.0 21.0 59 5.9 E 6 7 3 4 1013.3 - 0.0
30/08:00pm 30.6 33.2 20.5 54 6.7 E 7 9 4 5 1012.8 - 0.0
30/07:30pm 31.3 33.8 20.3 52 7.3 E 7 9 4 5 1012.5 - 0.0
30/07:00pm 32.5 33.8 19.4 46 8.6 E 11 15 6 8 1012.1 - 0.0
30/06:30pm 34.3 34.6 18.8 40 10.2 E 15 20 8 11 1011.8 - 0.0
30/06:00pm 35.5 34.6 18.1 35 11.4 E 20 30 11 16 1011.4 1010.8 0.0
30/05:30pm 36.4 36.0 18.0 33 12.0 E 17 26 9 14 1011.1 - 0.0
30/05:00pm 35.7 34.1 17.4 33 11.8 E 22 35 12 19 1011.2 - 0.0
30/04:30pm 37.1 35.2 17.6 31 12.7 ESE 24 39 13 21 1010.9 - 0.0
30/04:00pm 37.3 36.2 17.8 31 12.7 E 20 33 11 18 1011.1 - 0.0
30/03:30pm 37.8 36.7 17.7 30 13.1 ENE 20 39 11 21 1011.1 - 0.0
30/03:00pm 37.8 35.5 17.7 30 13.1 ESE 26 35 14 19 1011.3 1010.7 0.0
30/02:30pm 37.6 36.9 19.5 34 12.1 E 22 32 12 17 1011.6 - 0.0
30/02:00pm 36.4 36.0 18.0 33 12.0 E 17 28 9 15 1011.7 - 0.0
30/01:30pm 36.7 36.2 18.7 34 11.9 ESE 19 28 10 15 1012.1 - 0.0
30/01:00pm 36.7 36.0 18.3 34 12.1 ESE 19 26 10 14 1012.5 - 0.0
30/12:30pm 36.1 35.6 17.7 33 12.0 E 17 30 9 16 1013.1 - 0.0
30/12:00pm 36.0 33.9 17.2 33 12.1 E 24 35 13 19 1013.6 1013.0 0.0
30/11:30am 35.9 35.3 17.6 34 11.9 E 17 28 9 15 1014.0 - 0.0
30/11:00am 35.8 34.8 17.9 34 11.7 NE 20 30 11 16 1014.5 - 0.0
30/10:30am 34.8 35.3 19.2 39 10.3 NE 15 26 8 14 1014.7 - 0.0
30/10:00am 33.1 34.5 20.3 47 8.5 NNE 13 20 7 11 1014.8 - 0.0
30/09:30am 32.1 34.2 21.0 52 7.5 NE 11 17 6 9 1014.9 - 0.0
30/09:00am 31.3 33.7 21.5 56 6.6 ENE 11 17 6 9 1014.7 1014.1 0.0
30/08:30am 29.7 31.9 21.1 60 5.8 ENE 11 19 6 10 1014.3 - 0.0
30/08:00am 27.9 29.3 21.0 66 4.6 NNE 15 20 8 11 1013.7 - 0.0
30/07:30am 26.3 28.6 21.3 74 3.3 N 11 13 6 7 1013.3 - 0.0
30/07:00am 25.4 27.3 21.3 78 2.7 N 13 15 7 8 1013.0 - 0.0
30/06:30am 25.3 27.3 21.6 80 2.5 NNE 13 17 7 9 1012.5 - 0.0
30/06:00am 25.1 27.5 21.6 81 2.3 N 11 13 6 7 1012.3 1011.7 0.0
30/05:30am 25.2 27.9 22.1 83 2.1 NNE 11 15 6 8 1012.1 - 0.0
30/05:00am 24.3 29.2 22.4 89 1.3 CALM 0 0 0 0 1012.1 - 0.0
30/04:30am 24.9 29.5 21.8 83 2.1 CALM 0 0 0 0 1011.9 - 0.0
30/04:00am 24.8 28.3 21.9 84 1.9 WNW 6 7 3 4 1011.7 - 0.0
30/03:30am 25.2 29.9 21.9 82 2.2 CALM 0 0 0 0 1011.6 - 0.0
30/03:00am 25.4 28.9 21.9 81 2.3 N 6 7 3 4 1011.8 1011.2 0.0
30/02:30am 26.5 29.8 21.5 74 3.3 NE 6 9 3 5 1012.1 - 0.0
30/02:00am 27.7 30.1 21.5 69 4.1 NNE 11 15 6 8 1012.4 - 0.0
30/01:30am 27.7 30.1 21.5 69 4.1 NE 11 17 6 9 1012.5 - 0.0
30/01:00am 28.5 31.2 21.3 65 4.8 ENE 9 13 5 7 1012.9 - 0.0
30/12:30am 28.6 30.6 21.6 66 4.7 NE 13 17 7 9 1013.2 - 0.0
30/12:00am 28.4 30.5 21.7 67 4.5 NNE 13 15 7 8 1013.7 1013.1 0.0
 
Date/Time
CST
Temp
°C
App
Temp
°C
Dew
Point
Rel
Hum
%
Delta-T
°C
Wind Press
QNH
hPa
Press
MSL
hPa
Rain
since 9 am
mm
Dir
 
Spd
km/h
Gust
km/h
Spd
kts
Gust
kts
29/11:30pm 28.4 31.3 21.7 67 4.5 ENE 9 11 5 6 1013.9 - 0.0
29/11:00pm 27.8 30.7 21.8 70 4.0 NE 9 11 5 6 1013.9 - 0.0

Other Formats:

Comma delimited format used in spreadsheet applications
http://www.bom.gov.au/fwo/IDD60801/IDD60801.94130.axf

JavaScript Object Notation format (JSON) in row-major order
http://www.bom.gov.au/fwo/IDD60801/IDD60801.94130.json